sensor_id;sensor_type;location;lat;lon;timestamp;P1;durP1;ratioP1;P2;durP2;ratioP2
14732;SDS011;7457;50.960;6.830;2023-05-07T00:01:16;11.57;;;9.32;;
14732;SDS011;7457;50.960;6.830;2023-05-07T00:03:42;11.60;;;10.40;;
14732;SDS011;7457;50.960;6.830;2023-05-07T00:06:07;14.43;;;11.68;;
14732;SDS011;7457;50.960;6.830;2023-05-07T00:08:33;14.07;;;10.95;;
14732;SDS011;7457;50.960;6.830;2023-05-07T00:10:59;14.25;;;10.60;;
14732;SDS011;7457;50.960;6.830;2023-05-07T00:13:24;12.10;;;10.80;;
14732;SDS011;7457;50.960;6.830;2023-05-07T00:15:50;12.00;;;10.52;;
14732;SDS011;7457;50.960;6.830;2023-05-07T00:18:16;10.98;;;9.85;;
14732;SDS011;7457;50.960;6.830;2023-05-07T00:20:41;19.15;;;11.23;;
14732;SDS011;7457;50.960;6.830;2023-05-07T00:23:07;12.30;;;10.85;;
14732;SDS011;7457;50.960;6.830;2023-05-07T00:25:33;11.23;;;10.13;;
14732;SDS011;7457;50.960;6.830;2023-05-07T00:27:59;10.55;;;9.55;;
14732;SDS011;7457;50.960;6.830;2023-05-07T00:30:28;12.82;;;9.88;;
14732;SDS011;7457;50.960;6.830;2023-05-07T00:32:54;9.70;;;8.73;;
14732;SDS011;7457;50.960;6.830;2023-05-07T00:35:20;9.02;;;8.15;;
14732;SDS011;7457;50.960;6.830;2023-05-07T00:37:45;9.90;;;7.63;;
14732;SDS011;7457;50.960;6.830;2023-05-07T00:40:11;8.98;;;7.88;;
14732;SDS011;7457;50.960;6.830;2023-05-07T00:42:37;9.27;;;7.63;;
14732;SDS011;7457;50.960;6.830;2023-05-07T00:45:03;8.50;;;7.65;;
14732;SDS011;7457;50.960;6.830;2023-05-07T00:47:29;9.25;;;7.75;;
14732;SDS011;7457;50.960;6.830;2023-05-07T00:49:56;8.68;;;7.72;;
14732;SDS011;7457;50.960;6.830;2023-05-07T00:52:22;9.00;;;7.32;;
14732;SDS011;7457;50.960;6.830;2023-05-07T00:54:51;8.68;;;6.60;;
14732;SDS011;7457;50.960;6.830;2023-05-07T00:57:17;8.15;;;7.45;;
14732;SDS011;7457;50.960;6.830;2023-05-07T00:59:43;8.50;;;6.70;;
14732;SDS011;7457;50.960;6.830;2023-05-07T01:02:09;7.95;;;6.15;;
14732;SDS011;7457;50.960;6.830;2023-05-07T01:04:35;6.43;;;5.82;;
14732;SDS011;7457;50.960;6.830;2023-05-07T01:07:01;7.32;;;6.32;;
14732;SDS011;7457;50.960;6.830;2023-05-07T01:09:28;7.20;;;6.35;;
14732;SDS011;7457;50.960;6.830;2023-05-07T01:11:54;6.53;;;5.78;;
14732;SDS011;7457;50.960;6.830;2023-05-07T01:14:22;10.02;;;6.05;;
14732;SDS011;7457;50.960;6.830;2023-05-07T01:16:48;10.07;;;6.25;;
14732;SDS011;7457;50.960;6.830;2023-05-07T01:19:16;6.60;;;5.97;;
14732;SDS011;7457;50.960;6.830;2023-05-07T01:21:47;6.95;;;5.90;;
14732;SDS011;7457;50.960;6.830;2023-05-07T01:24:14;6.10;;;5.57;;
14732;SDS011;7457;50.960;6.830;2023-05-07T01:26:40;5.85;;;5.35;;
14732;SDS011;7457;50.960;6.830;2023-05-07T01:29:07;6.97;;;5.90;;
14732;SDS011;7457;50.960;6.830;2023-05-07T01:31:32;7.00;;;5.13;;
14732;SDS011;7457;50.960;6.830;2023-05-07T01:33:59;5.75;;;5.20;;
14732;SDS011;7457;50.960;6.830;2023-05-07T01:36:26;6.03;;;5.20;;
14732;SDS011;7457;50.960;6.830;2023-05-07T01:38:54;7.32;;;5.32;;
14732;SDS011;7457;50.960;6.830;2023-05-07T01:41:22;5.70;;;4.72;;
14732;SDS011;7457;50.960;6.830;2023-05-07T01:43:48;7.93;;;5.45;;
14732;SDS011;7457;50.960;6.830;2023-05-07T01:46:16;7.00;;;4.80;;
14732;SDS011;7457;50.960;6.830;2023-05-07T01:48:43;7.07;;;4.95;;
14732;SDS011;7457;50.960;6.830;2023-05-07T01:51:11;6.10;;;5.40;;
14732;SDS011;7457;50.960;6.830;2023-05-07T01:53:38;6.97;;;4.70;;
14732;SDS011;7457;50.960;6.830;2023-05-07T01:56:05;6.53;;;5.50;;
14732;SDS011;7457;50.960;6.830;2023-05-07T01:58:31;5.47;;;4.90;;
14732;SDS011;7457;50.960;6.830;2023-05-07T02:00:57;5.72;;;5.20;;
14732;SDS011;7457;50.960;6.830;2023-05-07T02:03:23;5.43;;;4.93;;
14732;SDS011;7457;50.960;6.830;2023-05-07T02:05:48;5.55;;;5.05;;
14732;SDS011;7457;50.960;6.830;2023-05-07T02:08:14;8.27;;;4.97;;
14732;SDS011;7457;50.960;6.830;2023-05-07T02:10:39;5.15;;;4.70;;
14732;SDS011;7457;50.960;6.830;2023-05-07T02:13:05;5.50;;;4.78;;
14732;SDS011;7457;50.960;6.830;2023-05-07T02:15:31;5.57;;;5.07;;
14732;SDS011;7457;50.960;6.830;2023-05-07T02:20:29;4.78;;;4.30;;
14732;SDS011;7457;50.960;6.830;2023-05-07T02:22:54;6.03;;;4.90;;
14732;SDS011;7457;50.960;6.830;2023-05-07T02:25:20;8.20;;;4.82;;
14732;SDS011;7457;50.960;6.830;2023-05-07T02:27:46;5.40;;;4.78;;
14732;SDS011;7457;50.960;6.830;2023-05-07T02:30:11;5.85;;;5.25;;
14732;SDS011;7457;50.960;6.830;2023-05-07T02:32:37;4.78;;;4.30;;
14732;SDS011;7457;50.960;6.830;2023-05-07T02:35:03;6.25;;;4.63;;
14732;SDS011;7457;50.960;6.830;2023-05-07T02:37:30;5.38;;;4.65;;
14732;SDS011;7457;50.960;6.830;2023-05-07T02:39:55;7.60;;;5.30;;
14732;SDS011;7457;50.960;6.830;2023-05-07T02:42:21;6.40;;;4.90;;
14732;SDS011;7457;50.960;6.830;2023-05-07T02:44:46;8.40;;;4.80;;
14732;SDS011;7457;50.960;6.830;2023-05-07T02:47:13;8.63;;;4.60;;
14732;SDS011;7457;50.960;6.830;2023-05-07T02:49:40;5.95;;;4.47;;
14732;SDS011;7457;50.960;6.830;2023-05-07T02:52:06;5.97;;;5.03;;
14732;SDS011;7457;50.960;6.830;2023-05-07T02:54:31;5.07;;;4.68;;
14732;SDS011;7457;50.960;6.830;2023-05-07T02:56:57;5.43;;;4.88;;
14732;SDS011;7457;50.960;6.830;2023-05-07T02:59:23;6.45;;;4.90;;
14732;SDS011;7457;50.960;6.830;2023-05-07T03:01:51;5.38;;;4.88;;
14732;SDS011;7457;50.960;6.830;2023-05-07T03:04:17;5.13;;;4.68;;
14732;SDS011;7457;50.960;6.830;2023-05-07T03:06:42;5.32;;;4.82;;
14732;SDS011;7457;50.960;6.830;2023-05-07T03:09:08;5.95;;;5.35;;
14732;SDS011;7457;50.960;6.830;2023-05-07T03:11:33;5.75;;;5.15;;
14732;SDS011;7457;50.960;6.830;2023-05-07T03:14:00;5.43;;;4.93;;
14732;SDS011;7457;50.960;6.830;2023-05-07T03:16:26;6.53;;;5.03;;
14732;SDS011;7457;50.960;6.830;2023-05-07T03:18:52;5.65;;;5.00;;
14732;SDS011;7457;50.960;6.830;2023-05-07T03:21:17;5.65;;;5.15;;
14732;SDS011;7457;50.960;6.830;2023-05-07T03:23:43;5.68;;;5.18;;
14732;SDS011;7457;50.960;6.830;2023-05-07T03:26:09;5.65;;;5.15;;
14732;SDS011;7457;50.960;6.830;2023-05-07T03:28:34;5.30;;;4.68;;
14732;SDS011;7457;50.960;6.830;2023-05-07T03:31:01;5.93;;;5.13;;
14732;SDS011;7457;50.960;6.830;2023-05-07T03:33:27;4.97;;;4.55;;
14732;SDS011;7457;50.960;6.830;2023-05-07T03:35:53;5.60;;;4.43;;
14732;SDS011;7457;50.960;6.830;2023-05-07T03:38:18;5.53;;;4.40;;
14732;SDS011;7457;50.960;6.830;2023-05-07T03:40:44;5.55;;;5.05;;
14732;SDS011;7457;50.960;6.830;2023-05-07T03:43:09;5.93;;;5.43;;
14732;SDS011;7457;50.960;6.830;2023-05-07T03:45:35;5.90;;;5.22;;
14732;SDS011;7457;50.960;6.830;2023-05-07T03:48:01;6.75;;;5.60;;
14732;SDS011;7457;50.960;6.830;2023-05-07T03:50:26;6.90;;;5.80;;
14732;SDS011;7457;50.960;6.830;2023-05-07T03:52:52;8.82;;;6.20;;
14732;SDS011;7457;50.960;6.830;2023-05-07T03:55:18;7.70;;;5.53;;
14732;SDS011;7457;50.960;6.830;2023-05-07T03:57:43;6.07;;;5.45;;
14732;SDS011;7457;50.960;6.830;2023-05-07T04:00:09;8.45;;;5.85;;
14732;SDS011;7457;50.960;6.830;2023-05-07T04:02:35;7.35;;;6.55;;
14732;SDS011;7457;50.960;6.830;2023-05-07T04:05:01;6.15;;;5.47;;
14732;SDS011;7457;50.960;6.830;2023-05-07T04:07:26;6.95;;;6.35;;
14732;SDS011;7457;50.960;6.830;2023-05-07T04:09:52;7.45;;;6.65;;
14732;SDS011;7457;50.960;6.830;2023-05-07T04:12:17;6.43;;;5.80;;
14732;SDS011;7457;50.960;6.830;2023-05-07T04:14:43;7.40;;;5.55;;
14732;SDS011;7457;50.960;6.830;2023-05-07T04:17:09;7.15;;;6.45;;
14732;SDS011;7457;50.960;6.830;2023-05-07T04:19:35;7.30;;;6.55;;
14732;SDS011;7457;50.960;6.830;2023-05-07T04:22:01;9.77;;;6.82;;
14732;SDS011;7457;50.960;6.830;2023-05-07T04:24:27;8.65;;;6.45;;
14732;SDS011;7457;50.960;6.830;2023-05-07T04:26:55;6.93;;;6.30;;
14732;SDS011;7457;50.960;6.830;2023-05-07T04:29:21;8.05;;;6.00;;
14732;SDS011;7457;50.960;6.830;2023-05-07T04:31:47;7.57;;;6.55;;
14732;SDS011;7457;50.960;6.830;2023-05-07T04:34:12;7.57;;;6.45;;
14732;SDS011;7457;50.960;6.830;2023-05-07T04:36:39;6.72;;;6.13;;
14732;SDS011;7457;50.960;6.830;2023-05-07T04:39:04;6.97;;;6.28;;
14732;SDS011;7457;50.960;6.830;2023-05-07T04:41:31;9.27;;;6.97;;
14732;SDS011;7457;50.960;6.830;2023-05-07T04:43:57;7.43;;;6.20;;
14732;SDS011;7457;50.960;6.830;2023-05-07T04:46:24;7.35;;;6.65;;
14732;SDS011;7457;50.960;6.830;2023-05-07T04:48:49;6.72;;;5.57;;
14732;SDS011;7457;50.960;6.830;2023-05-07T04:51:15;7.00;;;6.10;;
14732;SDS011;7457;50.960;6.830;2023-05-07T04:53:41;6.57;;;5.88;;
14732;SDS011;7457;50.960;6.830;2023-05-07T04:56:08;6.03;;;5.43;;
14732;SDS011;7457;50.960;6.830;2023-05-07T04:58:33;6.60;;;6.00;;
14732;SDS011;7457;50.960;6.830;2023-05-07T05:00:59;6.03;;;5.53;;
14732;SDS011;7457;50.960;6.830;2023-05-07T05:03:25;7.15;;;6.50;;
14732;SDS011;7457;50.960;6.830;2023-05-07T05:05:51;7.38;;;6.30;;
14732;SDS011;7457;50.960;6.830;2023-05-07T05:08:17;6.80;;;6.10;;
14732;SDS011;7457;50.960;6.830;2023-05-07T05:10:43;6.80;;;6.20;;
14732;SDS011;7457;50.960;6.830;2023-05-07T05:13:09;8.93;;;7.07;;
14732;SDS011;7457;50.960;6.830;2023-05-07T05:15:37;7.90;;;7.10;;
14732;SDS011;7457;50.960;6.830;2023-05-07T05:18:03;7.47;;;6.80;;
14732;SDS011;7457;50.960;6.830;2023-05-07T05:20:29;7.57;;;6.57;;
14732;SDS011;7457;50.960;6.830;2023-05-07T05:22:55;6.75;;;6.05;;
14732;SDS011;7457;50.960;6.830;2023-05-07T05:25:20;6.20;;;5.47;;
14732;SDS011;7457;50.960;6.830;2023-05-07T05:27:46;7.30;;;6.70;;
14732;SDS011;7457;50.960;6.830;2023-05-07T05:30:12;8.73;;;7.22;;
14732;SDS011;7457;50.960;6.830;2023-05-07T05:32:38;8.18;;;7.40;;
14732;SDS011;7457;50.960;6.830;2023-05-07T05:35:04;7.57;;;6.85;;
14732;SDS011;7457;50.960;6.830;2023-05-07T05:37:29;7.68;;;6.95;;
14732;SDS011;7457;50.960;6.830;2023-05-07T05:39:56;8.27;;;7.47;;
14732;SDS011;7457;50.960;6.830;2023-05-07T05:42:22;8.65;;;7.85;;
14732;SDS011;7457;50.960;6.830;2023-05-07T05:44:47;9.48;;;7.82;;
14732;SDS011;7457;50.960;6.830;2023-05-07T05:47:13;8.00;;;7.03;;
14732;SDS011;7457;50.960;6.830;2023-05-07T05:49:39;7.47;;;6.75;;
14732;SDS011;7457;50.960;6.830;2023-05-07T05:52:04;7.13;;;6.53;;
14732;SDS011;7457;50.960;6.830;2023-05-07T05:54:30;7.22;;;6.53;;
14732;SDS011;7457;50.960;6.830;2023-05-07T05:56:56;9.85;;;6.53;;
14732;SDS011;7457;50.960;6.830;2023-05-07T05:59:21;6.65;;;6.05;;
14732;SDS011;7457;50.960;6.830;2023-05-07T06:01:47;9.50;;;6.20;;
14732;SDS011;7457;50.960;6.830;2023-05-07T06:04:13;6.88;;;6.18;;
14732;SDS011;7457;50.960;6.830;2023-05-07T06:06:39;6.55;;;5.68;;
14732;SDS011;7457;50.960;6.830;2023-05-07T06:09:04;7.25;;;6.45;;
14732;SDS011;7457;50.960;6.830;2023-05-07T06:11:31;6.32;;;5.47;;
14732;SDS011;7457;50.960;6.830;2023-05-07T06:13:57;6.97;;;6.28;;
14732;SDS011;7457;50.960;6.830;2023-05-07T06:16:24;5.95;;;5.43;;
14732;SDS011;7457;50.960;6.830;2023-05-07T06:18:50;7.85;;;6.00;;
14732;SDS011;7457;50.960;6.830;2023-05-07T06:21:15;6.10;;;5.50;;
14732;SDS011;7457;50.960;6.830;2023-05-07T06:23:41;6.95;;;5.10;;
14732;SDS011;7457;50.960;6.830;2023-05-07T06:26:07;8.82;;;5.15;;
14732;SDS011;7457;50.960;6.830;2023-05-07T06:28:32;5.15;;;4.70;;
14732;SDS011;7457;50.960;6.830;2023-05-07T06:31:17;5.00;;;4.50;;
14732;SDS011;7457;50.960;6.830;2023-05-07T06:33:47;5.63;;;4.88;;
14732;SDS011;7457;50.960;6.830;2023-05-07T06:36:14;4.50;;;3.88;;
14732;SDS011;7457;50.960;6.830;2023-05-07T06:38:39;4.60;;;3.25;;
14732;SDS011;7457;50.960;6.830;2023-05-07T06:41:05;3.95;;;3.55;;
14732;SDS011;7457;50.960;6.830;2023-05-07T06:43:31;5.43;;;3.40;;
14732;SDS011;7457;50.960;6.830;2023-05-07T06:45:57;3.72;;;3.40;;
14732;SDS011;7457;50.960;6.830;2023-05-07T06:48:23;4.65;;;3.13;;
14732;SDS011;7457;50.960;6.830;2023-05-07T06:50:48;5.15;;;3.30;;
14732;SDS011;7457;50.960;6.830;2023-05-07T06:53:14;5.13;;;3.38;;
14732;SDS011;7457;50.960;6.830;2023-05-07T06:55:40;6.00;;;3.10;;
14732;SDS011;7457;50.960;6.830;2023-05-07T06:58:06;4.18;;;2.80;;
14732;SDS011;7457;50.960;6.830;2023-05-07T07:00:32;4.15;;;2.60;;
14732;SDS011;7457;50.960;6.830;2023-05-07T07:02:58;5.28;;;2.72;;
14732;SDS011;7457;50.960;6.830;2023-05-07T07:05:25;4.13;;;2.67;;
14732;SDS011;7457;50.960;6.830;2023-05-07T07:07:51;4.45;;;2.30;;
14732;SDS011;7457;50.960;6.830;2023-05-07T07:10:20;3.13;;;2.40;;
14732;SDS011;7457;50.960;6.830;2023-05-07T07:12:46;2.38;;;2.17;;
14732;SDS011;7457;50.960;6.830;2023-05-07T07:15:11;3.40;;;2.25;;
14732;SDS011;7457;50.960;6.830;2023-05-07T07:17:38;2.90;;;2.40;;
14732;SDS011;7457;50.960;6.830;2023-05-07T07:20:04;2.10;;;2.00;;
14732;SDS011;7457;50.960;6.830;2023-05-07T07:22:30;2.30;;;2.10;;
14732;SDS011;7457;50.960;6.830;2023-05-07T07:24:55;3.28;;;2.20;;
14732;SDS011;7457;50.960;6.830;2023-05-07T07:27:21;3.63;;;2.25;;
14732;SDS011;7457;50.960;6.830;2023-05-07T07:29:47;3.67;;;2.13;;
14732;SDS011;7457;50.960;6.830;2023-05-07T07:32:12;2.75;;;2.55;;
14732;SDS011;7457;50.960;6.830;2023-05-07T07:34:38;2.78;;;2.10;;
14732;SDS011;7457;50.960;6.830;2023-05-07T07:37:03;2.38;;;2.17;;
14732;SDS011;7457;50.960;6.830;2023-05-07T07:39:30;4.03;;;3.38;;
14732;SDS011;7457;50.960;6.830;2023-05-07T07:41:56;3.45;;;2.42;;
14732;SDS011;7457;50.960;6.830;2023-05-07T07:44:22;2.92;;;2.67;;
14732;SDS011;7457;50.960;6.830;2023-05-07T07:46:47;2.85;;;2.28;;
14732;SDS011;7457;50.960;6.830;2023-05-07T07:49:13;2.65;;;2.45;;
14732;SDS011;7457;50.960;6.830;2023-05-07T07:51:39;4.32;;;2.88;;
14732;SDS011;7457;50.960;6.830;2023-05-07T07:54:05;3.47;;;2.63;;
14732;SDS011;7457;50.960;6.830;2023-05-07T07:56:31;3.17;;;2.45;;
14732;SDS011;7457;50.960;6.830;2023-05-07T07:58:58;3.13;;;2.67;;
14732;SDS011;7457;50.960;6.830;2023-05-07T08:01:24;2.70;;;2.50;;
14732;SDS011;7457;50.960;6.830;2023-05-07T08:03:49;4.15;;;3.20;;
14732;SDS011;7457;50.960;6.830;2023-05-07T08:06:15;3.67;;;2.72;;
14732;SDS011;7457;50.960;6.830;2023-05-07T08:08:41;3.78;;;2.33;;
14732;SDS011;7457;50.960;6.830;2023-05-07T08:11:06;2.97;;;2.30;;
14732;SDS011;7457;50.960;6.830;2023-05-07T08:13:32;2.60;;;2.28;;
14732;SDS011;7457;50.960;6.830;2023-05-07T08:15:58;2.60;;;2.38;;
14732;SDS011;7457;50.960;6.830;2023-05-07T08:18:23;2.80;;;2.50;;
14732;SDS011;7457;50.960;6.830;2023-05-07T08:20:50;3.78;;;2.63;;
14732;SDS011;7457;50.960;6.830;2023-05-07T08:23:16;4.45;;;2.92;;
14732;SDS011;7457;50.960;6.830;2023-05-07T08:25:41;3.10;;;2.53;;
14732;SDS011;7457;50.960;6.830;2023-05-07T08:28:07;2.92;;;2.45;;
14732;SDS011;7457;50.960;6.830;2023-05-07T08:30:33;3.75;;;2.33;;
14732;SDS011;7457;50.960;6.830;2023-05-07T08:32:59;3.63;;;2.40;;
14732;SDS011;7457;50.960;6.830;2023-05-07T08:35:26;2.85;;;2.25;;
14732;SDS011;7457;50.960;6.830;2023-05-07T08:37:52;2.53;;;2.33;;
14732;SDS011;7457;50.960;6.830;2023-05-07T08:40:19;4.00;;;2.30;;
14732;SDS011;7457;50.960;6.830;2023-05-07T08:42:45;3.63;;;2.40;;
14732;SDS011;7457;50.960;6.830;2023-05-07T08:45:13;5.78;;;2.30;;
14732;SDS011;7457;50.960;6.830;2023-05-07T08:47:43;2.40;;;2.13;;
14732;SDS011;7457;50.960;6.830;2023-05-07T08:50:11;2.38;;;2.00;;
14732;SDS011;7457;50.960;6.830;2023-05-07T08:52:37;2.83;;;2.30;;
14732;SDS011;7457;50.960;6.830;2023-05-07T08:55:05;2.75;;;1.98;;
14732;SDS011;7457;50.960;6.830;2023-05-07T08:57:32;4.97;;;2.58;;
14732;SDS011;7457;50.960;6.830;2023-05-07T08:59:57;4.47;;;2.45;;
14732;SDS011;7457;50.960;6.830;2023-05-07T09:02:23;6.65;;;2.00;;
14732;SDS011;7457;50.960;6.830;2023-05-07T09:04:48;4.10;;;1.90;;
14732;SDS011;7457;50.960;6.830;2023-05-07T09:07:15;2.58;;;2.03;;
14732;SDS011;7457;50.960;6.830;2023-05-07T09:09:41;2.10;;;1.90;;
14732;SDS011;7457;50.960;6.830;2023-05-07T09:12:09;2.70;;;2.50;;
14732;SDS011;7457;50.960;6.830;2023-05-07T09:14:34;2.50;;;2.30;;
14732;SDS011;7457;50.960;6.830;2023-05-07T09:17:00;3.75;;;2.20;;
14732;SDS011;7457;50.960;6.830;2023-05-07T09:19:26;3.20;;;2.28;;
14732;SDS011;7457;50.960;6.830;2023-05-07T09:21:59;3.45;;;2.95;;
14732;SDS011;7457;50.960;6.830;2023-05-07T09:24:26;3.38;;;2.17;;
14732;SDS011;7457;50.960;6.830;2023-05-07T09:26:53;2.10;;;1.90;;
14732;SDS011;7457;50.960;6.830;2023-05-07T09:29:20;4.95;;;2.45;;
14732;SDS011;7457;50.960;6.830;2023-05-07T09:31:46;2.25;;;1.92;;
14732;SDS011;7457;50.960;6.830;2023-05-07T09:34:11;2.42;;;2.15;;
14732;SDS011;7457;50.960;6.830;2023-05-07T09:36:37;3.33;;;1.80;;
14732;SDS011;7457;50.960;6.830;2023-05-07T09:39:03;3.10;;;1.80;;
14732;SDS011;7457;50.960;6.830;2023-05-07T09:41:29;3.35;;;2.50;;
14732;SDS011;7457;50.960;6.830;2023-05-07T09:43:57;3.53;;;2.05;;
14732;SDS011;7457;50.960;6.830;2023-05-07T09:46:27;1.95;;;1.80;;
14732;SDS011;7457;50.960;6.830;2023-05-07T09:48:57;1.95;;;1.75;;
14732;SDS011;7457;50.960;6.830;2023-05-07T09:51:25;2.30;;;2.03;;
14732;SDS011;7457;50.960;6.830;2023-05-07T09:53:54;2.78;;;2.30;;
14732;SDS011;7457;50.960;6.830;2023-05-07T09:56:21;2.58;;;1.88;;
14732;SDS011;7457;50.960;6.830;2023-05-07T09:58:49;2.60;;;1.95;;
14732;SDS011;7457;50.960;6.830;2023-05-07T10:01:16;2.63;;;1.90;;
14732;SDS011;7457;50.960;6.830;2023-05-07T10:03:44;1.80;;;1.70;;
14732;SDS011;7457;50.960;6.830;2023-05-07T10:06:10;2.00;;;1.80;;
14732;SDS011;7457;50.960;6.830;2023-05-07T10:08:38;1.88;;;1.75;;
14732;SDS011;7457;50.960;6.830;2023-05-07T10:11:04;6.55;;;2.22;;
14732;SDS011;7457;50.960;6.830;2023-05-07T10:13:33;1.85;;;1.75;;
14732;SDS011;7457;50.960;6.830;2023-05-07T10:16:03;3.33;;;2.13;;
14732;SDS011;7457;50.960;6.830;2023-05-07T10:18:32;1.98;;;1.77;;
14732;SDS011;7457;50.960;6.830;2023-05-07T10:21:17;3.15;;;2.10;;
14732;SDS011;7457;50.960;6.830;2023-05-07T10:23:49;4.40;;;1.70;;
14732;SDS011;7457;50.960;6.830;2023-05-07T10:26:17;3.30;;;1.88;;
14732;SDS011;7457;50.960;6.830;2023-05-07T10:28:46;5.88;;;2.05;;
14732;SDS011;7457;50.960;6.830;2023-05-07T10:33:47;2.17;;;1.73;;
14732;SDS011;7457;50.960;6.830;2023-05-07T10:36:16;2.28;;;1.80;;
14732;SDS011;7457;50.960;6.830;2023-05-07T10:38:43;2.28;;;1.52;;
14732;SDS011;7457;50.960;6.830;2023-05-07T10:41:09;4.05;;;1.98;;
14732;SDS011;7457;50.960;6.830;2023-05-07T10:43:42;1.85;;;1.75;;
14732;SDS011;7457;50.960;6.830;2023-05-07T10:51:35;1.90;;;1.80;;
14732;SDS011;7457;50.960;6.830;2023-05-07T10:56:38;2.53;;;1.90;;
14732;SDS011;7457;50.960;6.830;2023-05-07T11:01:56;3.97;;;2.00;;
14732;SDS011;7457;50.960;6.830;2023-05-07T11:04:28;3.45;;;2.00;;
14732;SDS011;7457;50.960;6.830;2023-05-07T11:17:35;2.72;;;2.00;;
14732;SDS011;7457;50.960;6.830;2023-05-07T11:20:21;1.70;;;1.60;;
14732;SDS011;7457;50.960;6.830;2023-05-07T11:23:08;2.50;;;2.00;;
14732;SDS011;7457;50.960;6.830;2023-05-07T11:25:58;2.10;;;1.90;;
14732;SDS011;7457;50.960;6.830;2023-05-07T11:28:28;2.50;;;1.80;;
14732;SDS011;7457;50.960;6.830;2023-05-07T11:30:55;3.78;;;1.60;;
14732;SDS011;7457;50.960;6.830;2023-05-07T11:33:22;1.80;;;1.60;;
14732;SDS011;7457;50.960;6.830;2023-05-07T11:35:50;2.60;;;1.73;;
14732;SDS011;7457;50.960;6.830;2023-05-07T11:38:18;1.70;;;1.60;;
14732;SDS011;7457;50.960;6.830;2023-05-07T11:40:54;5.07;;;1.92;;
14732;SDS011;7457;50.960;6.830;2023-05-07T11:43:25;3.08;;;1.58;;
14732;SDS011;7457;50.960;6.830;2023-05-07T11:45:51;4.25;;;1.95;;
14732;SDS011;7457;50.960;6.830;2023-05-07T11:48:17;2.85;;;1.90;;
14732;SDS011;7457;50.960;6.830;2023-05-07T11:53:27;4.68;;;2.78;;
14732;SDS011;7457;50.960;6.830;2023-05-07T11:56:00;3.30;;;2.10;;
14732;SDS011;7457;50.960;6.830;2023-05-07T11:58:34;3.58;;;2.03;;
14732;SDS011;7457;50.960;6.830;2023-05-07T12:01:00;2.58;;;1.90;;
14732;SDS011;7457;50.960;6.830;2023-05-07T12:03:26;2.00;;;1.80;;
14732;SDS011;7457;50.960;6.830;2023-05-07T12:05:51;2.03;;;1.85;;
14732;SDS011;7457;50.960;6.830;2023-05-07T12:08:18;2.58;;;2.10;;
14732;SDS011;7457;50.960;6.830;2023-05-07T12:10:44;3.70;;;2.50;;
14732;SDS011;7457;50.960;6.830;2023-05-07T12:13:19;2.97;;;1.80;;
14732;SDS011;7457;50.960;6.830;2023-05-07T12:15:50;3.83;;;1.90;;
14732;SDS011;7457;50.960;6.830;2023-05-07T12:18:16;2.65;;;1.95;;
14732;SDS011;7457;50.960;6.830;2023-05-07T12:20:42;2.10;;;1.77;;
14732;SDS011;7457;50.960;6.830;2023-05-07T12:23:08;2.85;;;2.08;;
14732;SDS011;7457;50.960;6.830;2023-05-07T12:25:34;2.15;;;1.90;;
14732;SDS011;7457;50.960;6.830;2023-05-07T12:28:03;2.55;;;2.17;;
14732;SDS011;7457;50.960;6.830;2023-05-07T12:30:32;2.45;;;1.88;;
14732;SDS011;7457;50.960;6.830;2023-05-07T12:33:02;3.05;;;2.25;;
14732;SDS011;7457;50.960;6.830;2023-05-07T12:35:38;2.50;;;1.50;;
14732;SDS011;7457;50.960;6.830;2023-05-07T12:38:12;3.78;;;1.83;;
14732;SDS011;7457;50.960;6.830;2023-05-07T12:43:15;3.35;;;2.20;;
14732;SDS011;7457;50.960;6.830;2023-05-07T12:45:45;2.85;;;1.90;;
14732;SDS011;7457;50.960;6.830;2023-05-07T12:48:12;2.65;;;1.98;;
14732;SDS011;7457;50.960;6.830;2023-05-07T12:50:38;10.75;;;6.50;;
14732;SDS011;7457;50.960;6.830;2023-05-07T12:53:04;8.15;;;3.80;;
14732;SDS011;7457;50.960;6.830;2023-05-07T12:55:31;3.88;;;1.80;;
14732;SDS011;7457;50.960;6.830;2023-05-07T12:57:57;3.70;;;1.90;;
14732;SDS011;7457;50.960;6.830;2023-05-07T13:00:36;3.65;;;2.20;;
14732;SDS011;7457;50.960;6.830;2023-05-07T13:03:03;3.38;;;1.92;;
14732;SDS011;7457;50.960;6.830;2023-05-07T13:05:29;4.57;;;1.70;;
14732;SDS011;7457;50.960;6.830;2023-05-07T13:07:57;2.10;;;1.90;;
14732;SDS011;7457;50.960;6.830;2023-05-07T13:10:23;2.47;;;1.95;;
14732;SDS011;7457;50.960;6.830;2023-05-07T13:12:50;3.33;;;2.05;;
14732;SDS011;7457;50.960;6.830;2023-05-07T13:15:16;2.60;;;2.20;;
14732;SDS011;7457;50.960;6.830;2023-05-07T13:17:42;2.60;;;2.40;;
14732;SDS011;7457;50.960;6.830;2023-05-07T13:20:10;3.33;;;2.28;;
14732;SDS011;7457;50.960;6.830;2023-05-07T13:22:37;2.40;;;2.20;;
14732;SDS011;7457;50.960;6.830;2023-05-07T13:25:04;2.30;;;2.10;;
14732;SDS011;7457;50.960;6.830;2023-05-07T13:27:30;5.05;;;2.40;;
14732;SDS011;7457;50.960;6.830;2023-05-07T13:29:56;6.10;;;2.08;;
14732;SDS011;7457;50.960;6.830;2023-05-07T13:32:22;2.65;;;2.20;;
14732;SDS011;7457;50.960;6.830;2023-05-07T13:34:48;2.20;;;2.00;;
14732;SDS011;7457;50.960;6.830;2023-05-07T13:37:13;5.00;;;2.40;;
14732;SDS011;7457;50.960;6.830;2023-05-07T13:39:39;2.30;;;2.10;;
14732;SDS011;7457;50.960;6.830;2023-05-07T13:42:05;3.53;;;2.50;;
14732;SDS011;7457;50.960;6.830;2023-05-07T13:44:31;3.00;;;2.13;;
14732;SDS011;7457;50.960;6.830;2023-05-07T13:46:57;2.78;;;2.25;;
14732;SDS011;7457;50.960;6.830;2023-05-07T13:49:22;2.92;;;2.22;;
14732;SDS011;7457;50.960;6.830;2023-05-07T13:51:49;3.00;;;2.67;;
14732;SDS011;7457;50.960;6.830;2023-05-07T13:54:14;5.80;;;3.05;;
14732;SDS011;7457;50.960;6.830;2023-05-07T13:56:40;3.25;;;2.95;;
14732;SDS011;7457;50.960;6.830;2023-05-07T13:59:06;3.83;;;2.80;;
14732;SDS011;7457;50.960;6.830;2023-05-07T14:01:32;5.53;;;3.42;;
14732;SDS011;7457;50.960;6.830;2023-05-07T14:03:57;4.35;;;3.13;;
14732;SDS011;7457;50.960;6.830;2023-05-07T14:06:24;3.40;;;3.10;;
14732;SDS011;7457;50.960;6.830;2023-05-07T14:08:50;4.63;;;3.40;;
14732;SDS011;7457;50.960;6.830;2023-05-07T14:11:16;3.35;;;3.05;;
14732;SDS011;7457;50.960;6.830;2023-05-07T14:13:42;5.75;;;3.60;;
14732;SDS011;7457;50.960;6.830;2023-05-07T14:16:07;3.67;;;3.38;;
14732;SDS011;7457;50.960;6.830;2023-05-07T14:18:33;6.95;;;3.90;;
14732;SDS011;7457;50.960;6.830;2023-05-07T14:21:00;4.60;;;4.13;;
14732;SDS011;7457;50.960;6.830;2023-05-07T14:23:25;7.18;;;4.35;;
14732;SDS011;7457;50.960;6.830;2023-05-07T14:25:52;5.28;;;4.15;;
14732;SDS011;7457;50.960;6.830;2023-05-07T14:28:18;7.82;;;3.58;;
14732;SDS011;7457;50.960;6.830;2023-05-07T14:30:44;5.00;;;3.50;;
14732;SDS011;7457;50.960;6.830;2023-05-07T14:33:10;3.83;;;3.53;;
14732;SDS011;7457;50.960;6.830;2023-05-07T14:35:35;4.45;;;3.70;;
14732;SDS011;7457;50.960;6.830;2023-05-07T14:38:01;5.75;;;4.10;;
14732;SDS011;7457;50.960;6.830;2023-05-07T14:40:27;4.70;;;3.63;;
14732;SDS011;7457;50.960;6.830;2023-05-07T14:42:53;4.63;;;3.50;;
14732;SDS011;7457;50.960;6.830;2023-05-07T14:45:18;10.57;;;7.55;;
14732;SDS011;7457;50.960;6.830;2023-05-07T14:47:46;4.95;;;3.85;;
14732;SDS011;7457;50.960;6.830;2023-05-07T14:50:11;5.20;;;3.53;;
14732;SDS011;7457;50.960;6.830;2023-05-07T14:52:37;8.02;;;4.20;;
14732;SDS011;7457;50.960;6.830;2023-05-07T14:55:03;5.55;;;2.65;;
14732;SDS011;7457;50.960;6.830;2023-05-07T14:57:29;1.95;;;1.83;;
14732;SDS011;7457;50.960;6.830;2023-05-07T14:59:55;2.03;;;1.52;;
14732;SDS011;7457;50.960;6.830;2023-05-07T15:02:20;2.15;;;1.95;;
14732;SDS011;7457;50.960;6.830;2023-05-07T15:04:46;4.55;;;2.38;;
14732;SDS011;7457;50.960;6.830;2023-05-07T15:07:12;4.55;;;2.72;;
14732;SDS011;7457;50.960;6.830;2023-05-07T15:09:44;3.00;;;2.50;;
14732;SDS011;7457;50.960;6.830;2023-05-07T15:12:10;3.42;;;2.35;;
14732;SDS011;7457;50.960;6.830;2023-05-07T15:14:36;3.03;;;2.80;;
14732;SDS011;7457;50.960;6.830;2023-05-07T15:17:05;3.55;;;2.80;;
14732;SDS011;7457;50.960;6.830;2023-05-07T15:19:30;4.13;;;3.10;;
14732;SDS011;7457;50.960;6.830;2023-05-07T15:21:56;2.85;;;2.58;;
14732;SDS011;7457;50.960;6.830;2023-05-07T15:24:23;4.10;;;3.40;;
14732;SDS011;7457;50.960;6.830;2023-05-07T15:26:48;5.70;;;3.40;;
14732;SDS011;7457;50.960;6.830;2023-05-07T15:29:14;5.93;;;3.75;;